createdAt,value
2022-12-12T00:01:58.583Z,9.53
2022-12-12T00:05:15.377Z,9.43
2022-12-12T00:08:25.178Z,9.67
2022-12-12T00:11:33.601Z,9.73
2022-12-12T00:14:41.864Z,8.27
2022-12-12T00:17:50.127Z,8.00
2022-12-12T00:20:59.805Z,12.33
2022-12-12T00:24:10.228Z,7.57
2022-12-12T00:27:18.536Z,7.90
2022-12-12T00:30:27.271Z,10.93
2022-12-12T00:33:35.792Z,11.00
2022-12-12T00:36:44.022Z,8.40
2022-12-12T00:39:54.017Z,11.30
2022-12-12T00:43:02.800Z,9.33
2022-12-12T00:46:15.266Z,7.67
2022-12-12T00:49:23.604Z,9.90
2022-12-12T00:52:31.891Z,8.67
2022-12-12T00:55:41.863Z,8.30
2022-12-12T00:58:50.981Z,11.63
2022-12-12T01:01:59.366Z,9.00
2022-12-12T01:05:08.905Z,9.87
2022-12-12T01:08:17.204Z,9.07
2022-12-12T01:11:27.699Z,8.50
2022-12-12T01:14:36.013Z,10.77
2022-12-12T01:17:44.461Z,9.13
2022-12-12T01:20:52.969Z,9.87
2022-12-12T01:24:01.494Z,10.93
2022-12-12T01:27:11.078Z,9.33
2022-12-12T01:30:23.226Z,9.73
2022-12-12T01:33:31.604Z,8.63
2022-12-12T01:36:40.097Z,8.27
2022-12-12T01:39:48.498Z,8.77
2022-12-12T01:42:59.551Z,7.17
2022-12-12T01:46:43.158Z,9.83
2022-12-12T01:49:55.981Z,10.30
2022-12-12T01:53:04.381Z,8.00
2022-12-12T01:56:20.491Z,11.20
2022-12-12T01:59:31.057Z,15.13
2022-12-12T02:02:42.098Z,10.13
2022-12-12T02:05:55.983Z,8.73
2022-12-12T02:09:09.609Z,8.37
2022-12-12T02:12:18.058Z,10.40
2022-12-12T02:15:39.394Z,9.60
2022-12-12T02:19:00.788Z,8.90
2022-12-12T02:22:19.705Z,8.37
2022-12-12T02:26:17.803Z,9.80
2022-12-12T02:30:22.177Z,8.63
2022-12-12T02:33:45.786Z,6.97
2022-12-12T02:37:07.244Z,10.20
2022-12-12T02:40:23.919Z,8.83
2022-12-12T02:43:43.068Z,11.63
2022-12-12T02:47:05.161Z,7.87
2022-12-12T02:50:20.145Z,9.50
2022-12-12T02:53:28.471Z,11.03
2022-12-12T02:56:54.197Z,11.17
2022-12-12T03:00:09.086Z,7.93
2022-12-12T03:03:55.154Z,8.77
2022-12-12T03:07:34.176Z,9.10
2022-12-12T03:10:57.837Z,9.13
2022-12-12T03:14:17.779Z,9.57
2022-12-12T03:17:37.099Z,8.20
2022-12-12T03:20:56.229Z,9.60
2022-12-12T03:24:12.260Z,7.33
2022-12-12T03:27:30.715Z,9.13
2022-12-12T03:30:46.688Z,7.93
2022-12-12T03:34:02.713Z,5.43
2022-12-12T03:37:17.527Z,7.87
2022-12-12T03:40:34.501Z,7.03
2022-12-12T03:43:52.513Z,10.13
2022-12-12T03:47:08.419Z,8.00
2022-12-12T03:50:22.104Z,8.53
2022-12-12T03:53:39.609Z,9.93
2022-12-12T03:56:57.152Z,5.43
2022-12-12T04:00:10.384Z,7.83
2022-12-12T04:03:31.097Z,9.00
2022-12-12T04:06:44.701Z,7.00
2022-12-12T04:10:11.131Z,7.50
2022-12-12T04:13:33.855Z,7.00
2022-12-12T04:16:47.415Z,6.63
2022-12-12T04:20:18.950Z,7.00
2022-12-12T04:23:38.229Z,7.60
2022-12-12T04:26:53.204Z,7.60
2022-12-12T04:30:09.328Z,12.17
2022-12-12T04:33:24.170Z,8.77
2022-12-12T04:36:35.636Z,5.47
2022-12-12T04:39:47.448Z,5.43
2022-12-12T04:43:04.072Z,7.47
2022-12-12T04:46:17.911Z,5.50
2022-12-12T04:49:30.067Z,5.87
2022-12-12T04:52:42.410Z,6.83
2022-12-12T04:55:57.067Z,6.23
2022-12-12T04:59:07.716Z,5.10
2022-12-12T05:02:30.788Z,4.57
2022-12-12T05:05:48.762Z,5.47
2022-12-12T05:08:59.709Z,6.30
2022-12-12T05:12:08.291Z,4.07
2022-12-12T05:15:21.224Z,9.07
2022-12-12T05:18:31.923Z,7.83
2022-12-12T05:21:40.334Z,6.17
2022-12-12T05:24:48.710Z,6.73
2022-12-12T05:27:57.195Z,11.67
2022-12-12T05:31:06.782Z,6.80
2022-12-12T05:34:16.954Z,6.13
2022-12-12T05:37:25.155Z,6.60
2022-12-12T05:40:33.419Z,7.53
2022-12-12T05:43:44.953Z,6.03
2022-12-12T05:46:53.219Z,6.47
2022-12-12T05:50:02.879Z,7.33
2022-12-12T05:53:11.375Z,10.33
2022-12-12T05:56:19.735Z,8.33
2022-12-12T05:59:28.233Z,5.80
2022-12-12T06:02:36.534Z,6.13
2022-12-12T06:05:46.414Z,3.80
2022-12-12T06:08:55.643Z,8.77
2022-12-12T06:12:05.154Z,8.33
2022-12-12T06:15:13.631Z,5.67
2022-12-12T06:18:22.009Z,5.90
2022-12-12T06:21:31.651Z,5.20
2022-12-12T06:24:39.976Z,3.70
2022-12-12T06:27:48.180Z,7.13
2022-12-12T06:30:56.777Z,7.67
2022-12-12T06:34:05.112Z,6.13
2022-12-12T06:37:17.325Z,4.63
2022-12-12T06:40:25.864Z,4.37
2022-12-12T06:43:34.136Z,6.17
2022-12-12T06:46:42.841Z,5.53
2022-12-12T06:49:51.129Z,3.23
2022-12-12T06:53:00.763Z,4.73
2022-12-12T06:56:10.910Z,4.60
2022-12-12T06:59:19.199Z,6.33
2022-12-12T07:02:30.032Z,4.63
2022-12-12T07:05:38.713Z,4.30
2022-12-12T07:08:48.792Z,4.60
2022-12-12T07:11:57.096Z,4.57
2022-12-12T07:15:06.070Z,4.70
2022-12-12T07:18:15.646Z,7.07
2022-12-12T07:21:23.924Z,5.57
2022-12-12T07:24:33.529Z,4.37
2022-12-12T07:27:41.891Z,4.83
2022-12-12T07:30:51.358Z,4.77
2022-12-12T07:33:59.866Z,5.77
2022-12-12T07:37:08.183Z,4.77
2022-12-12T07:40:18.850Z,3.90
2022-12-12T07:43:27.039Z,4.07
2022-12-12T07:46:35.469Z,3.47
2022-12-12T07:49:43.747Z,5.90
2022-12-12T07:52:52.247Z,4.40
2022-12-12T07:56:01.883Z,4.83
2022-12-12T07:59:10.147Z,2.83
2022-12-12T08:02:18.452Z,3.23
2022-12-12T08:05:26.784Z,4.07
2022-12-12T08:08:35.562Z,3.13
2022-12-12T08:11:46.736Z,3.53
2022-12-12T08:14:55.376Z,3.33
2022-12-12T08:18:03.734Z,8.10
2022-12-12T08:21:18.707Z,6.67
2022-12-12T08:24:31.640Z,4.00
2022-12-12T08:27:41.333Z,5.43
2022-12-12T08:30:52.979Z,4.03
2022-12-12T08:34:02.600Z,3.93
2022-12-12T08:37:11.218Z,5.50
2022-12-12T08:40:20.901Z,5.13
2022-12-12T08:43:30.536Z,5.50
2022-12-12T08:46:39.511Z,5.50
2022-12-12T08:49:47.828Z,6.13
2022-12-12T08:52:57.728Z,4.93
2022-12-12T08:56:06.895Z,6.30
2022-12-12T08:59:16.474Z,3.40
2022-12-12T09:02:24.871Z,4.60
2022-12-12T09:05:33.190Z,3.67
2022-12-12T09:08:42.843Z,3.60
2022-12-12T09:11:51.084Z,4.60
2022-12-12T09:15:00.633Z,4.33
2022-12-12T09:18:08.908Z,5.47
2022-12-12T09:21:17.577Z,5.27
2022-12-12T09:24:28.899Z,4.33
2022-12-12T09:27:37.858Z,4.13
2022-12-12T09:30:48.639Z,4.40
2022-12-12T09:33:56.880Z,8.03
2022-12-12T09:37:06.155Z,3.73
2022-12-12T09:40:22.566Z,4.13
2022-12-12T09:43:35.912Z,4.47
2022-12-12T09:46:52.247Z,3.73
2022-12-12T09:50:12.979Z,4.20
2022-12-12T09:53:23.886Z,4.07
2022-12-12T09:56:41.311Z,3.87
2022-12-12T09:59:59.185Z,3.83
2022-12-12T10:03:27.864Z,5.23
2022-12-12T10:06:48.307Z,10.10
2022-12-12T10:10:11.216Z,3.27
2022-12-12T10:13:24.860Z,2.93
2022-12-12T10:16:34.893Z,4.03
2022-12-12T10:19:52.620Z,5.10
2022-12-12T10:23:08.446Z,3.57
2022-12-12T10:26:19.989Z,4.27
2022-12-12T10:29:28.811Z,3.63
2022-12-12T10:32:52.053Z,3.07
2022-12-12T10:36:11.820Z,7.13
2022-12-12T10:39:32.044Z,7.30
2022-12-12T10:42:48.793Z,4.90
2022-12-12T10:46:24.982Z,3.93
2022-12-12T10:49:35.280Z,2.80
2022-12-12T10:52:45.276Z,4.27
2022-12-12T10:55:59.844Z,5.50
2022-12-12T10:59:23.443Z,3.63
2022-12-12T11:02:39.589Z,4.07
2022-12-12T11:05:49.636Z,4.73
2022-12-12T11:09:08.311Z,5.20
2022-12-12T11:12:18.223Z,3.27
2022-12-12T11:15:38.002Z,5.17
2022-12-12T11:19:02.194Z,3.53
2022-12-12T11:22:14.770Z,4.43
2022-12-12T11:25:30.050Z,2.67
2022-12-12T11:28:42.002Z,3.07
2022-12-12T11:31:50.504Z,3.07
2022-12-12T11:35:03.086Z,4.97
2022-12-12T11:38:21.588Z,4.03
2022-12-12T11:41:59.339Z,3.60
2022-12-12T11:45:24.370Z,1.80
2022-12-12T11:48:42.578Z,6.53
2022-12-12T11:51:50.911Z,4.00
2022-12-12T11:55:00.930Z,4.33
2022-12-12T11:58:22.192Z,2.93
2022-12-12T12:01:47.081Z,2.77
2022-12-12T12:05:15.347Z,2.77
2022-12-12T12:08:51.708Z,3.07
2022-12-12T12:12:11.316Z,2.03
2022-12-12T12:15:43.025Z,5.77
2022-12-12T12:19:08.078Z,4.30
2022-12-12T12:22:33.457Z,7.53
2022-12-12T12:25:55.214Z,4.77
2022-12-12T12:29:22.292Z,3.60
2022-12-12T12:32:51.311Z,3.10
2022-12-12T12:36:20.892Z,4.57
2022-12-12T12:39:53.709Z,2.30
2022-12-12T12:43:35.530Z,3.23
2022-12-12T12:46:58.107Z,5.13
2022-12-12T12:50:20.750Z,5.27
2022-12-12T12:53:38.463Z,2.03
2022-12-12T12:56:57.334Z,2.17
2022-12-12T13:00:15.665Z,2.53
2022-12-12T13:03:32.349Z,2.00
2022-12-12T13:06:49.328Z,12.77
2022-12-12T13:10:08.046Z,3.27
2022-12-12T13:13:25.863Z,3.80
2022-12-12T13:16:35.128Z,1.63
2022-12-12T13:19:48.297Z,3.70
2022-12-12T13:23:19.121Z,3.47
2022-12-12T13:26:40.271Z,3.00
2022-12-12T13:29:56.390Z,2.43
2022-12-12T13:33:34.477Z,2.30
2022-12-12T13:36:48.098Z,3.13
2022-12-12T13:40:06.027Z,2.83
2022-12-12T13:43:32.710Z,2.70
2022-12-12T13:46:42.567Z,3.07
2022-12-12T13:49:54.653Z,2.80
2022-12-12T13:53:21.299Z,2.60
2022-12-12T13:56:43.874Z,2.87
2022-12-12T14:00:28.857Z,2.10
2022-12-12T14:03:38.689Z,2.57
2022-12-12T14:06:47.238Z,2.73
2022-12-12T14:09:58.410Z,5.20
2022-12-12T14:13:40.189Z,2.50
2022-12-12T14:16:57.963Z,3.07
2022-12-12T14:20:08.182Z,2.93
2022-12-12T14:23:30.027Z,2.90
2022-12-12T14:26:51.638Z,2.37
2022-12-12T14:30:02.606Z,2.77
2022-12-12T14:33:46.695Z,2.57
2022-12-12T14:37:34.834Z,2.70
2022-12-12T14:40:49.280Z,3.13
2022-12-12T14:44:36.853Z,2.10
2022-12-12T14:47:31.703Z,1.67
2022-12-12T14:50:41.452Z,2.83
2022-12-12T14:53:52.542Z,2.73
2022-12-12T14:57:01.592Z,4.13
2022-12-12T15:00:19.237Z,5.00
2022-12-12T15:03:36.144Z,3.80
2022-12-12T15:06:46.224Z,8.63
2022-12-12T15:09:54.947Z,5.07
2022-12-12T15:13:03.273Z,4.80
2022-12-12T15:16:11.607Z,5.23
2022-12-12T15:19:29.148Z,4.40
2022-12-12T15:22:49.432Z,7.17
2022-12-12T15:25:57.944Z,3.60
2022-12-12T15:29:06.340Z,6.27
2022-12-12T15:32:20.190Z,7.87
2022-12-12T15:35:30.161Z,5.87
2022-12-12T15:38:38.498Z,8.40
2022-12-12T15:41:47.875Z,7.40
2022-12-12T15:44:57.231Z,7.67
2022-12-12T15:48:08.011Z,13.50
2022-12-12T15:51:25.053Z,35.60
2022-12-12T15:54:33.777Z,27.60
2022-12-12T15:57:49.093Z,36.27
2022-12-12T16:01:21.321Z,21.00
2022-12-12T16:04:30.238Z,13.70
2022-12-12T16:07:40.775Z,11.87
2022-12-12T16:10:55.294Z,8.07
2022-12-12T16:14:04.192Z,11.37
2022-12-12T16:17:18.444Z,8.53
2022-12-12T16:20:30.436Z,5.77
2022-12-12T16:23:43.115Z,13.13
2022-12-12T16:26:52.206Z,7.57
2022-12-12T16:30:00.335Z,8.10
2022-12-12T16:33:13.193Z,7.60
2022-12-12T16:36:21.421Z,11.70
2022-12-12T16:39:31.362Z,10.53
2022-12-12T16:42:39.670Z,12.70
2022-12-12T16:45:50.961Z,14.40
2022-12-12T16:49:04.748Z,9.90
2022-12-12T16:52:15.898Z,9.50
2022-12-12T16:55:26.781Z,12.63
2022-12-12T16:58:35.517Z,11.13
2022-12-12T17:01:44.053Z,13.90
2022-12-12T17:04:53.049Z,11.37
2022-12-12T17:08:01.556Z,8.00
2022-12-12T17:11:13.183Z,10.63
2022-12-12T17:14:24.996Z,10.03
2022-12-12T17:17:33.341Z,14.47
2022-12-12T17:20:43.056Z,19.90
2022-12-12T17:23:51.973Z,8.37
2022-12-12T17:27:01.930Z,10.97
2022-12-12T17:30:13.485Z,11.10
2022-12-12T17:33:22.238Z,6.63
2022-12-12T17:36:31.457Z,6.80
2022-12-12T17:39:40.272Z,5.50
2022-12-12T17:42:50.314Z,4.47
2022-12-12T17:46:00.938Z,7.97
2022-12-12T17:49:09.352Z,8.30
2022-12-12T17:52:17.747Z,11.80
2022-12-12T17:55:55.098Z,9.60
2022-12-12T17:58:55.884Z,8.43
2022-12-12T18:02:05.917Z,6.17
2022-12-12T18:05:19.614Z,7.00
2022-12-12T18:08:28.015Z,11.37
2022-12-12T18:11:38.623Z,10.10
2022-12-12T18:14:48.416Z,6.20
2022-12-12T18:17:57.517Z,8.83
2022-12-12T18:21:08.718Z,9.40
2022-12-12T18:24:18.331Z,5.53
2022-12-12T18:27:26.675Z,8.40
2022-12-12T18:30:37.006Z,9.57
2022-12-12T18:33:45.350Z,9.73
2022-12-12T18:36:54.055Z,11.03
2022-12-12T18:40:02.378Z,9.20
2022-12-12T18:43:10.580Z,10.53
2022-12-12T18:46:24.265Z,9.80
2022-12-12T18:49:33.935Z,13.60
2022-12-12T18:52:43.499Z,5.87
2022-12-12T18:55:52.056Z,5.43
2022-12-12T18:59:03.105Z,10.67
2022-12-12T19:02:14.723Z,8.07
2022-12-12T19:05:23.507Z,11.43
2022-12-12T19:08:32.108Z,14.63
2022-12-12T19:11:40.764Z,15.83
2022-12-12T19:18:19.465Z,10.37
2022-12-12T19:21:28.863Z,9.13
2022-12-12T19:24:37.064Z,8.43
2022-12-12T19:27:46.791Z,10.40
2022-12-12T19:30:55.050Z,7.77
2022-12-12T19:34:06.975Z,10.33
2022-12-12T19:37:15.263Z,11.07
2022-12-12T19:40:23.526Z,12.13
2022-12-12T19:43:32.118Z,16.20
2022-12-12T19:46:43.069Z,12.30
2022-12-12T19:49:52.790Z,12.53
2022-12-12T19:53:01.287Z,8.50
2022-12-12T19:56:13.861Z,11.50
2022-12-12T19:59:22.174Z,8.30
2022-12-12T20:02:30.577Z,10.17
2022-12-12T20:05:42.264Z,7.43
2022-12-12T20:08:51.163Z,5.90
2022-12-12T20:12:01.598Z,4.37
2022-12-12T20:15:10.966Z,7.10
2022-12-12T20:18:19.215Z,7.47
2022-12-12T20:21:59.863Z,8.47
2022-12-12T20:24:58.843Z,12.10
2022-12-12T20:28:08.030Z,11.73
2022-12-12T20:31:24.181Z,14.63
2022-12-12T20:34:33.127Z,12.73
2022-12-12T20:37:43.370Z,9.77
2022-12-12T20:40:51.835Z,11.23
2022-12-12T20:44:01.836Z,14.77
2022-12-12T20:47:17.908Z,10.70
2022-12-12T20:50:26.514Z,13.47
2022-12-12T20:53:37.259Z,13.93
2022-12-12T20:56:46.514Z,16.67
2022-12-12T20:59:55.391Z,10.63
2022-12-12T21:03:04.368Z,10.93
2022-12-12T21:06:13.857Z,9.43
2022-12-12T21:09:26.467Z,7.23
2022-12-12T21:12:35.044Z,8.90
2022-12-12T21:15:43.968Z,7.43
2022-12-12T21:18:55.285Z,6.37
2022-12-12T21:22:03.909Z,8.37
2022-12-12T21:25:16.867Z,7.50
2022-12-12T21:28:25.615Z,11.37
2022-12-12T21:31:38.241Z,12.53
2022-12-12T21:34:46.528Z,9.67
2022-12-12T21:37:54.853Z,13.17
2022-12-12T21:41:08.323Z,21.63
2022-12-12T21:44:16.703Z,18.23
2022-12-12T21:47:24.894Z,20.97
2022-12-12T21:50:33.383Z,18.00
2022-12-12T21:53:42.854Z,11.43
2022-12-12T21:56:52.931Z,15.60
2022-12-12T22:00:01.266Z,14.47
2022-12-12T22:03:10.408Z,14.10
2022-12-12T22:06:22.504Z,11.70
2022-12-12T22:09:30.938Z,11.33
2022-12-12T22:12:40.815Z,10.93
2022-12-12T22:15:58.872Z,8.20
2022-12-12T22:19:11.096Z,8.43
2022-12-12T22:22:19.460Z,8.67
2022-12-12T22:25:29.431Z,13.30
2022-12-12T22:28:39.214Z,12.87
2022-12-12T22:31:49.878Z,14.73
2022-12-12T22:34:59.226Z,15.63
2022-12-12T22:38:07.530Z,24.60
2022-12-12T22:41:15.733Z,24.63
2022-12-12T22:44:26.923Z,22.60
2022-12-12T22:47:35.153Z,19.73
2022-12-12T22:50:43.511Z,18.37
2022-12-12T22:53:52.583Z,15.13
2022-12-12T22:57:00.779Z,11.53
2022-12-12T23:00:12.353Z,8.83
2022-12-12T23:03:20.548Z,7.20
2022-12-12T23:06:31.653Z,8.07
2022-12-12T23:09:52.228Z,7.17
2022-12-12T23:13:00.463Z,5.27
2022-12-12T23:16:13.948Z,4.47
2022-12-12T23:19:26.205Z,9.07
2022-12-12T23:22:34.661Z,4.83
2022-12-12T23:25:42.877Z,5.83
2022-12-12T23:28:51.583Z,8.27
2022-12-12T23:32:03.036Z,6.30
2022-12-12T23:35:11.455Z,7.17
2022-12-12T23:38:20.361Z,6.50
2022-12-12T23:41:29.628Z,6.47
2022-12-12T23:44:38.641Z,4.17
2022-12-12T23:47:49.043Z,4.77
2022-12-12T23:50:57.659Z,4.53
2022-12-12T23:54:11.503Z,8.80
2022-12-12T23:57:19.703Z,3.57
